Main page
METAR-TAF:

METAR-TAF

Airports :

Bric della Croce

Turin, Italy

latitude: 45-02N, longitude: 007-44E, elevation: 709 m

Current weather observation

The report was made 35 minutes ago, at 12:55 UTC
Calm wind
Temperature 0°C
Humidity 100%
Pressure 1018 hPa
Visibility: 0100 m
freezing fog

METAR: LIMK 171255Z 00000KT 0100 FZFG VV001 M00/M00 Q1018 RMK VAL INVIS VIS MIN 0100

Time: 14:30 (13:30 UTC)


TAF: missing

Weather observations and forecasts of more than 4000 airports (METAR and TAF reports).

The available stations are represented by yellow and red dots on the map.

Hover mouse over dot to see the name of the station.

Then click to see weather observations and forecasts.

To change the map : click on the green buttons with a black cross to zoom in, on the green button with a dash to zoom out, or on the green arrows for adjacent maps.


METAR-TAF: